MSC Vanessa — HOWD — position and weather

sailwx.info

Track history (hours):
 
Tides and Currents Weather Stations Pressure Air Temp Water Temp Dewpoint Dewpoint Depression Visibility Wind Speed Wind Dir Waves Ship Positions

MSC Vanessa

Last reported at 2018-Jun-17 09:40 UTC. Time now 2018-Jun-18 05:37 UTC.
Position N 35°02' E 129°22'.

Length 300 m; draft 13.5 m.

Type: Cargo ship. MMSI: 356946000.

Date/timePositionNaut miles runAvg speedWind from/ knotsBaromVisibWave heightAir tempDewpointWater temp
2018-Jun-17 09:40N 35°02' E 129°22'320.5
2018-Jun-17 09:30N 35°00' E 129°18'1020.1
2018-Jun-17 08:59N 34°55' E 129°08'  
2018-Jun-14 11:29N 23°32' E 118°10'1021.1
2018-Jun-14 11:00N 23°26' E 118°01'1120.7
2018-Jun-14 10:29N 23°19' E 117°52'1020.4
2018-Jun-14 10:00N 23°13' E 117°43'8 0.2
2018-Jun-12 21:57N 23°21' E 117°40'920.1
2018-Jun-12 21:29N 23°28' E 117°46'1020.7
2018-Jun-12 21:00N 23°34' E 117°54'2021.1
2018-Jun-12 20:05N 23°46' E 118°11'220.6
2018-Jun-12 19:58N 23°48' E 118°13'3 5.1
2018-Jun-12 19:18N 23°50' E 118°15'0 1.1
2018-Jun-12 18:58N 23°51' E 118°16'1 1.6
2018-Jun-12 18:30N 23°51' E 118°16'2 3.7
2018-Jun-12 18:00N 23°53' E 118°17'817.2
2018-Jun-12 17:31N 23°58' E 118°24'1019.5
2018-Jun-12 17:00N 24°07' E 118°21'816.9
2018-Jun-12 16:31N 24°14' E 118°16'612.3
2018-Jun-12 16:00N 24°19' E 118°11'510.1
2018-Jun-12 15:30N 24°23' E 118°08'611.1
2018-Jun-12 15:00N 24°26' E 118°03'2 3.5
2018-Jun-12 14:30N 24°27' E 118°01'0 0.0
2018-Jun-12 14:00N 24°27' E 118°01'0 0.0
2018-Jun-12 13:30N 24°27' E 118°01'0 0.1
2018-Jun-12 13:00N 24°27' E 118°01'0 0.1
2018-Jun-12 12:30N 24°27' E 118°01'0 0.0
2018-Jun-12 12:00N 24°27' E 118°01'0 0.0
2018-Jun-12 11:30N 24°27' E 118°01'0 0.0
2018-Jun-12 11:00N 24°27' E 118°01'0 0.0
2018-Jun-12 10:30N 24°27' E 118°01'0 0.0
2018-Jun-12 10:00N 24°27' E 118°01'0 0.0
2018-Jun-12 09:29N 24°27' E 118°01'0 0.0
2018-Jun-12 09:00N 24°27' E 118°01'0 0.0
2018-Jun-12 08:30N 24°27' E 118°01'0 0.0
2018-Jun-12 08:00N 24°27' E 118°01'0 0.0
2018-Jun-12 07:30N 24°27' E 118°01'0 0.0
2018-Jun-12 07:00N 24°27' E 118°01'0 0.0
2018-Jun-12 06:30N 24°27' E 118°01'0 0.0
2018-Jun-12 06:00N 24°27' E 118°01'0 0.0
2018-Jun-12 05:30N 24°27' E 118°01'0 0.0
2018-Jun-12 05:00N 24°27' E 118°01'0 0.0
2018-Jun-12 04:30N 24°27' E 118°01'0 0.0
2018-Jun-12 04:00N 24°27' E 118°01'0 0.0
2018-Jun-12 03:30N 24°27' E 118°01'0 0.0
2018-Jun-12 03:00N 24°27' E 118°01'0 0.0
2018-Jun-12 02:30N 24°27' E 118°01'0 0.0
2018-Jun-12 02:00N 24°27' E 118°01'0 0.0
2018-Jun-12 01:30N 24°27' E 118°01'0 0.0
2018-Jun-12 01:00N 24°27' E 118°01'0 0.0
2018-Jun-12 00:30N 24°27' E 118°01'0 0.0
2018-Jun-12 00:00N 24°27' E 118°01'0 0.0
2018-Jun-11 23:30N 24°27' E 118°01'0 0.1
2018-Jun-11 23:00N 24°27' E 118°01'0 0.1
2018-Jun-11 22:30N 24°27' E 118°01'0 0.0
2018-Jun-11 22:00N 24°27' E 118°01'0 0.0
2018-Jun-11 21:30N 24°27' E 118°01'0 0.0
2018-Jun-11 21:00N 24°27' E 118°01'0 0.0
2018-Jun-11 20:30N 24°27' E 118°01'0 0.0
2018-Jun-11 20:00N 24°27' E 118°01'0 0.0
2018-Jun-11 19:30N 24°27' E 118°01'0 0.0
2018-Jun-11 19:00N 24°27' E 118°01'0 0.0
2018-Jun-11 18:30N 24°27' E 118°01'0 0.1
2018-Jun-11 18:00N 24°27' E 118°01'0 0.0
2018-Jun-11 17:30N 24°27' E 118°01'0 0.1
2018-Jun-11 17:00N 24°27' E 118°01'0 0.1
2018-Jun-11 16:30N 24°27' E 118°01'0 0.0
2018-Jun-11 16:00N 24°27' E 118°01'0 0.0
2018-Jun-11 15:30N 24°27' E 118°01'0 0.0
2018-Jun-11 15:00N 24°27' E 118°01'0 0.1
2018-Jun-11 14:30N 24°27' E 118°01'0 0.0
2018-Jun-11 14:00N 24°27' E 118°01'0 0.0
2018-Jun-11 13:30N 24°27' E 118°01'0 0.0
2018-Jun-11 13:00N 24°27' E 118°01'0 0.0
2018-Jun-11 12:30N 24°27' E 118°01'0 0.0
2018-Jun-11 12:00N 24°27' E 118°01'0 0.0
2018-Jun-11 11:30N 24°27' E 118°01'0 0.1
2018-Jun-11 11:00N 24°27' E 118°01'0 0.1
2018-Jun-11 10:29N 24°27' E 118°01'0 0.0
2018-Jun-11 10:00N 24°27' E 118°01'0 0.0
2018-Jun-11 09:30N 24°27' E 118°01'0 0.0
2018-Jun-11 09:00N 24°27' E 118°01'0 0.0
2018-Jun-11 08:30N 24°27' E 118°01'0 0.0
2018-Jun-11 08:00N 24°27' E 118°01'0 0.0
2018-Jun-11 07:30N 24°27' E 118°01'0 0.0
2018-Jun-11 07:00N 24°27' E 118°01'0 0.0
2018-Jun-11 06:30N 24°27' E 118°01'0 0.0
2018-Jun-11 06:00N 24°27' E 118°01'0 0.0
2018-Jun-11 05:30N 24°27' E 118°01'0 0.0
2018-Jun-11 05:00N 24°27' E 118°01'0 0.0
2018-Jun-11 04:30N 24°27' E 118°01'0 0.0
2018-Jun-11 04:00N 24°27' E 118°01'0 0.0
2018-Jun-11 03:30N 24°27' E 118°01'0 0.0
2018-Jun-11 03:00N 24°27' E 118°01'0 0.0
2018-Jun-11 02:30N 24°27' E 118°01'0 0.0
2018-Jun-11 02:00N 24°27' E 118°01'0 0.0
2018-Jun-11 01:30N 24°27' E 118°01'0 0.0
2018-Jun-11 01:00N 24°27' E 118°01'0 0.0
2018-Jun-11 00:30N 24°27' E 118°01'0 0.0
2018-Jun-11 00:00N 24°27' E 118°01'0 0.0
2018-Jun-10 23:30N 24°27' E 118°01'0 0.0
2018-Jun-10 23:00N 24°27' E 118°01'0 0.0
2018-Jun-10 22:30N 24°27' E 118°01'0 0.0
2018-Jun-10 22:00N 24°27' E 118°01'0 0.0
2018-Jun-10 21:30N 24°27' E 118°01'0 0.1
2018-Jun-10 21:00N 24°27' E 118°01'0 0.1
2018-Jun-10 20:30N 24°27' E 118°01'0 0.0
2018-Jun-10 20:00N 24°27' E 118°01'0 0.3
2018-Jun-10 19:30N 24°27' E 118°01'4 8.1
2018-Jun-10 19:00N 24°25' E 118°05'510.5
2018-Jun-10 18:30N 24°21' E 118°09'713.0
2018-Jun-10 18:00N 24°17' E 118°14'612.7
2018-Jun-10 17:30N 24°12' E 118°19'610.6
2018-Jun-10 16:59N 24°12' E 118°25'712.4
2018-Jun-10 16:27N 24°14' E 118°32'1020.2
2018-Jun-10 15:56N 24°20' E 118°41'42418.8
2018-Jun-09 17:23N 30°04' E 123°20'616.5
2018-Jun-09 17:00N 30°07' E 123°14'24 3.5
2018-Jun-09 10:04N 30°23' E 122°53'316.7
2018-Jun-09 09:52N 30°25' E 122°50'614.3
2018-Jun-09 09:29N 30°28' E 122°45'13 0.8
2018-Jun-08 15:43N 30°31' E 122°29'417.9
2018-Jun-08 15:28N 30°32' E 122°24'712.5
2018-Jun-08 14:56N 30°33' E 122°17'816.7
2018-Jun-08 14:28N 30°35' E 122°08'5 0.4
2018-Jun-08 03:34N 30°38' E 122°03'0 0.1
2018-Jun-08 03:29N 30°38' E 122°03'30 4.6
2018-Jun-07 21:01N 30°29' E 122°36'0 0.0
2018-Jun-07 20:58N 30°29' E 122°36'0 0.1
2018-Jun-07 20:16N 30°29' E 122°36'0 0.0
2018-Jun-07 19:40N 30°29' E 122°36'  
Track history (hours):
 
Tides and Currents Weather Stations Pressure Air Temp Water Temp Dewpoint Dewpoint Depression Visibility Wind Speed Wind Dir Waves Ship Positions

MSC Vanessa

Last reported at 2018-Jun-17 09:40 UTC. Time now 2018-Jun-18 05:37 UTC.
Position N 35°02' E 129°22'.

Length 300 m; draft 13.5 m.

Type: Cargo ship. MMSI: 356946000.

Date/timePositionNaut miles runAvg speedWind from/ knotsBaromVisibWave heightAir tempDewpointWater temp
2018-Jun-17 09:40N 35°02' E 129°22'320.5
2018-Jun-17 09:30N 35°00' E 129°18'1020.1
2018-Jun-17 08:59N 34°55' E 129°08'  
2018-Jun-14 11:29N 23°32' E 118°10'1021.1
2018-Jun-14 11:00N 23°26' E 118°01'1120.7
2018-Jun-14 10:29N 23°19' E 117°52'1020.4
2018-Jun-14 10:00N 23°13' E 117°43'8 0.2
2018-Jun-12 21:57N 23°21' E 117°40'920.1
2018-Jun-12 21:29N 23°28' E 117°46'1020.7
2018-Jun-12 21:00N 23°34' E 117°54'2021.1
2018-Jun-12 20:05N 23°46' E 118°11'220.6
2018-Jun-12 19:58N 23°48' E 118°13'3 5.1
2018-Jun-12 19:18N 23°50' E 118°15'0 1.1
2018-Jun-12 18:58N 23°51' E 118°16'1 1.6
2018-Jun-12 18:30N 23°51' E 118°16'2 3.7
2018-Jun-12 18:00N 23°53' E 118°17'817.2
2018-Jun-12 17:31N 23°58' E 118°24'1019.5
2018-Jun-12 17:00N 24°07' E 118°21'816.9
2018-Jun-12 16:31N 24°14' E 118°16'612.3
2018-Jun-12 16:00N 24°19' E 118°11'510.1
2018-Jun-12 15:30N 24°23' E 118°08'611.1
2018-Jun-12 15:00N 24°26' E 118°03'2 3.5
2018-Jun-12 14:30N 24°27' E 118°01'0 0.0
2018-Jun-12 14:00N 24°27' E 118°01'0 0.0
2018-Jun-12 13:30N 24°27' E 118°01'0 0.1
2018-Jun-12 13:00N 24°27' E 118°01'0 0.1
2018-Jun-12 12:30N 24°27' E 118°01'0 0.0
2018-Jun-12 12:00N 24°27' E 118°01'0 0.0
2018-Jun-12 11:30N 24°27' E 118°01'0 0.0
2018-Jun-12 11:00N 24°27' E 118°01'0 0.0
2018-Jun-12 10:30N 24°27' E 118°01'0 0.0
2018-Jun-12 10:00N 24°27' E 118°01'0 0.0
2018-Jun-12 09:29N 24°27' E 118°01'0 0.0
2018-Jun-12 09:00N 24°27' E 118°01'0 0.0
2018-Jun-12 08:30N 24°27' E 118°01'0 0.0
2018-Jun-12 08:00N 24°27' E 118°01'0 0.0
2018-Jun-12 07:30N 24°27' E 118°01'0 0.0
2018-Jun-12 07:00N 24°27' E 118°01'0 0.0
2018-Jun-12 06:30N 24°27' E 118°01'0 0.0
2018-Jun-12 06:00N 24°27' E 118°01'0 0.0
2018-Jun-12 05:30N 24°27' E 118°01'0 0.0
2018-Jun-12 05:00N 24°27' E 118°01'0 0.0
2018-Jun-12 04:30N 24°27' E 118°01'0 0.0
2018-Jun-12 04:00N 24°27' E 118°01'0 0.0
2018-Jun-12 03:30N 24°27' E 118°01'0 0.0
2018-Jun-12 03:00N 24°27' E 118°01'0 0.0
2018-Jun-12 02:30N 24°27' E 118°01'0 0.0
2018-Jun-12 02:00N 24°27' E 118°01'0 0.0
2018-Jun-12 01:30N 24°27' E 118°01'0 0.0
2018-Jun-12 01:00N 24°27' E 118°01'0 0.0
2018-Jun-12 00:30N 24°27' E 118°01'0 0.0
2018-Jun-12 00:00N 24°27' E 118°01'0 0.0
2018-Jun-11 23:30N 24°27' E 118°01'0 0.1
2018-Jun-11 23:00N 24°27' E 118°01'0 0.1
2018-Jun-11 22:30N 24°27' E 118°01'0 0.0
2018-Jun-11 22:00N 24°27' E 118°01'0 0.0
2018-Jun-11 21:30N 24°27' E 118°01'0 0.0
2018-Jun-11 21:00N 24°27' E 118°01'0 0.0
2018-Jun-11 20:30N 24°27' E 118°01'0 0.0
2018-Jun-11 20:00N 24°27' E 118°01'0 0.0
2018-Jun-11 19:30N 24°27' E 118°01'0 0.0
2018-Jun-11 19:00N 24°27' E 118°01'0 0.0
2018-Jun-11 18:30N 24°27' E 118°01'0 0.1
2018-Jun-11 18:00N 24°27' E 118°01'0 0.0
2018-Jun-11 17:30N 24°27' E 118°01'0 0.1
2018-Jun-11 17:00N 24°27' E 118°01'0 0.1
2018-Jun-11 16:30N 24°27' E 118°01'0 0.0
2018-Jun-11 16:00N 24°27' E 118°01'0 0.0
2018-Jun-11 15:30N 24°27' E 118°01'0 0.0
2018-Jun-11 15:00N 24°27' E 118°01'0 0.1
2018-Jun-11 14:30N 24°27' E 118°01'0 0.0
2018-Jun-11 14:00N 24°27' E 118°01'0 0.0
2018-Jun-11 13:30N 24°27' E 118°01'0 0.0
2018-Jun-11 13:00N 24°27' E 118°01'0 0.0
2018-Jun-11 12:30N 24°27' E 118°01'0 0.0
2018-Jun-11 12:00N 24°27' E 118°01'0 0.0
2018-Jun-11 11:30N 24°27' E 118°01'0 0.1
2018-Jun-11 11:00N 24°27' E 118°01'0 0.1
2018-Jun-11 10:29N 24°27' E 118°01'0 0.0
2018-Jun-11 10:00N 24°27' E 118°01'0 0.0
2018-Jun-11 09:30N 24°27' E 118°01'0 0.0
2018-Jun-11 09:00N 24°27' E 118°01'0 0.0
2018-Jun-11 08:30N 24°27' E 118°01'0 0.0
2018-Jun-11 08:00N 24°27' E 118°01'0 0.0
2018-Jun-11 07:30N 24°27' E 118°01'0 0.0
2018-Jun-11 07:00N 24°27' E 118°01'0 0.0
2018-Jun-11 06:30N 24°27' E 118°01'0 0.0
2018-Jun-11 06:00N 24°27' E 118°01'0 0.0
2018-Jun-11 05:30N 24°27' E 118°01'0 0.0
2018-Jun-11 05:00N 24°27' E 118°01'0 0.0
2018-Jun-11 04:30N 24°27' E 118°01'0 0.0
2018-Jun-11 04:00N 24°27' E 118°01'0 0.0
2018-Jun-11 03:30N 24°27' E 118°01'0 0.0
2018-Jun-11 03:00N 24°27' E 118°01'0 0.0
2018-Jun-11 02:30N 24°27' E 118°01'0 0.0
2018-Jun-11 02:00N 24°27' E 118°01'0 0.0
2018-Jun-11 01:30N 24°27' E 118°01'0 0.0
2018-Jun-11 01:00N 24°27' E 118°01'0 0.0
2018-Jun-11 00:30N 24°27' E 118°01'0 0.0
2018-Jun-11 00:00N 24°27' E 118°01'0 0.0
2018-Jun-10 23:30N 24°27' E 118°01'0 0.0
2018-Jun-10 23:00N 24°27' E 118°01'0 0.0
2018-Jun-10 22:30N 24°27' E 118°01'0 0.0
2018-Jun-10 22:00N 24°27' E 118°01'0 0.0
2018-Jun-10 21:30N 24°27' E 118°01'0 0.1
2018-Jun-10 21:00N 24°27' E 118°01'0 0.1
2018-Jun-10 20:30N 24°27' E 118°01'0 0.0
2018-Jun-10 20:00N 24°27' E 118°01'0 0.3
2018-Jun-10 19:30N 24°27' E 118°01'4 8.1
2018-Jun-10 19:00N 24°25' E 118°05'510.5
2018-Jun-10 18:30N 24°21' E 118°09'713.0
2018-Jun-10 18:00N 24°17' E 118°14'612.7
2018-Jun-10 17:30N 24°12' E 118°19'610.6
2018-Jun-10 16:59N 24°12' E 118°25'712.4
2018-Jun-10 16:27N 24°14' E 118°32'1020.2
2018-Jun-10 15:56N 24°20' E 118°41'42418.8
2018-Jun-09 17:23N 30°04' E 123°20'616.5
2018-Jun-09 17:00N 30°07' E 123°14'24 3.5
2018-Jun-09 10:04N 30°23' E 122°53'316.7
2018-Jun-09 09:52N 30°25' E 122°50'614.3
2018-Jun-09 09:29N 30°28' E 122°45'13 0.8
2018-Jun-08 15:43N 30°31' E 122°29'417.9
2018-Jun-08 15:28N 30°32' E 122°24'712.5
2018-Jun-08 14:56N 30°33' E 122°17'816.7
2018-Jun-08 14:28N 30°35' E 122°08'5 0.4
2018-Jun-08 03:34N 30°38' E 122°03'0 0.1
2018-Jun-08 03:29N 30°38' E 122°03'30 4.6
2018-Jun-07 21:01N 30°29' E 122°36'0 0.0
2018-Jun-07 20:58N 30°29' E 122°36'0 0.1
2018-Jun-07 20:16N 30°29' E 122°36'0 0.0
2018-Jun-07 19:40N 30°29' E 122°36'  

Dump ship's entire track history